»·PEaware :: N45XS KSMX-KBFL

N45XS :: KSMX-KBFL

FLIGHT INFORMATION

Flight Status: Arrived
Operator: Privately registered:
United States
More flights under this callsign
Pilot: Pierre C. (6327)
Aircraft: BEECH AIRCRAFT BARON
(BE58)
More flights by this aircraft type
Origin: KSMX Santa Maria Pub/Capt Hancock
United States
Destination: KBFL Meadows
United States
More flights between these airports :: More routes between these airports
Route:
File this flight plan on PilotEdge
Remarks:
Altitude:
(Current/Filed)
7,500ft
Speed:
(Current/Filed)
160kts
Departed: 11-Oct-18 03:46 AM
Arrived: 11-Oct-18 04:24 AM
Distance/Time
Traveled:
76nm/0:38
Distance/Time
To Go:
Arrived

Flight Plot

Page will automatically refresh every two minutes.


Map Options




Map Legend


Flown Route
Filed Route
Departure Airport
Arrival Airport
Navaid (VOR, NDB)
Fix

Horizontal Profiles

Position Reports

Time Latitude Longitude Heading Altitude Ground
Speed
11-Oct-18 03:37 34.900578 -120.451303 228 262ft 0kts
11-Oct-18 03:38 34.900578 -120.451303 228 262ft 0kts
11-Oct-18 03:39 34.900578 -120.451303 228 262ft 0kts
11-Oct-18 03:40 34.900578 -120.451303 228 262ft 0kts
11-Oct-18 03:41 34.900578 -120.451303 228 262ft 0kts
11-Oct-18 03:42 34.900578 -120.451303 228 262ft 0kts
11-Oct-18 03:43 34.901039 -120.452339 313 262ft 9kts
11-Oct-18 03:44 34.902113 -120.454460 313 262ft 12kts
11-Oct-18 03:45 34.903947 -120.456686 316 262ft 0kts
11-Oct-18 03:46 34.906535 -120.459763 317 262ft 17kts
11-Oct-18 03:47 34.908619 -120.463275 219 262ft 0kts
11-Oct-18 03:48 34.900554 -120.454937 134 380ft 110kts
11-Oct-18 03:49 34.883278 -120.423977 96 1761ft 101kts
11-Oct-18 03:50 34.895583 -120.391461 64 2758ft 115kts
11-Oct-18 03:51 34.918716 -120.365239 29 3775ft 116kts
11-Oct-18 03:52 34.941756 -120.336543 43 4675ft 118kts
11-Oct-18 03:53 34.960683 -120.302545 61 5398ft 131kts
11-Oct-18 03:54 34.977992 -120.257230 66 5651ft 149kts
11-Oct-18 03:55 34.996034 -120.210541 66 6272ft 151kts
11-Oct-18 03:56 35.013933 -120.164203 66 6881ft 150kts
11-Oct-18 03:57 35.031259 -120.119160 62 7500ft 143kts
11-Oct-18 03:58 35.049558 -120.071782 62 7514ft 166kts
11-Oct-18 03:59 35.069199 -120.020684 62 7343ft 166kts
11-Oct-18 04:00 35.088710 -119.969869 62 7253ft 163kts
11-Oct-18 04:01 35.107407 -119.921136 62 7255ft 161kts
11-Oct-18 04:02 35.126302 -119.871827 62 7255ft 161kts
11-Oct-18 04:03 35.145205 -119.822395 62 7271ft 161kts
11-Oct-18 04:04 35.164229 -119.772566 62 7270ft 162kts
11-Oct-18 04:05 35.183463 -119.722090 62 7269ft 167kts
11-Oct-18 04:06 35.203189 -119.670191 62 7160ft 168kts
11-Oct-18 04:07 35.222747 -119.618700 62 6421ft 162kts
11-Oct-18 04:08 35.231959 -119.565155 78 5650ft 161kts
11-Oct-18 04:09 35.238798 -119.510930 78 4860ft 163kts
11-Oct-18 04:10 35.245919 -119.455199 78 3901ft 166kts
11-Oct-18 04:11 35.252746 -119.402502 78 3048ft 143kts
11-Oct-18 04:12 35.259180 -119.353456 78 2276ft 148kts
11-Oct-18 04:13 35.265765 -119.304407 78 1691ft 144kts
11-Oct-18 04:14 35.272703 -119.253257 78 1750ft 152kts
11-Oct-18 04:15 35.279513 -119.202884 78 1702ft 149kts
11-Oct-18 04:16 35.289188 -119.154551 47 1632ft 147kts
11-Oct-18 04:17 35.309206 -119.114238 61 1434ft 111kts
11-Oct-18 04:18 35.321107 -119.085049 61 1031ft 121kts
11-Oct-18 04:19 35.324108 -119.077681 61 973ft 118kts
11-Oct-18 04:20 35.336925 -119.045864 61 978ft 101kts
11-Oct-18 04:21 35.355442 -119.020732 40 1096ft 95kts
11-Oct-18 04:22 35.375515 -118.999875 22 1312ft 97kts
11-Oct-18 04:23 35.397980 -119.013293 317 1424ft 94kts
11-Oct-18 04:24 35.416188 -119.035045 318 884ft 90kts
11-Oct-18 04:25 35.433626 -119.056033 318 517ft 85kts
11-Oct-18 04:26 35.440258 -119.061712 135 494ft 15kts
11-Oct-18 04:27 35.436015 -119.056593 134 490ft 18kts
11-Oct-18 04:28 35.436567 -119.054565 329 497ft 0kts

Navigation Log

Ident Type
Flight plan parsing failed, navigation log unavailable